This is the latest recevied weather packets stored in our database for station/object W2GLD-13. If no packets are shown the sender has not sent any weather packets the latest 10 day(s).
| Time | Temp. | Humidity | Pressure | Rain* | Wind** | Luminosity | Snow |
|---|---|---|---|---|---|---|---|
| 1777910406 | 17.22° C | 52% | 1002.1 hPa | 0 mm | - | - | - |
| 1777909506 | 17.22° C | 52% | 1002.1 hPa | 0 mm | - | - | - |
| 1777908605 | 17.22° C | 52% | 1002.1 hPa | 0 mm | - | - | - |
| 1777907705 | 17.22° C | 52% | 1002.1 hPa | 0 mm | - | - | - |
| 1777906805 | 14.44° C | 61% | 1002.5 hPa | 0 mm | - | - | - |
| 1777905905 | 14.44° C | 61% | 1002.5 hPa | 0 mm | - | - | - |
| 1777905006 | 14.44° C | 61% | 1002.5 hPa | 0 mm | - | - | - |
| 1777904106 | 14.44° C | 61% | 1002.5 hPa | 0 mm | - | - | - |
| 1777903206 | 11.67° C | 70% | 1003.2 hPa | 0 mm | - | - | - |
| 1777902306 | 11.67° C | 70% | 1003.2 hPa | 0 mm | - | - | - |
| 1777901405 | 11.67° C | 70% | 1003.2 hPa | 0 mm | - | - | - |
| 1777900505 | 11.67° C | 70% | 1003.2 hPa | 0 mm | - | - | - |
| 1777899605 | 8.89° C | 79% | 1003.3 hPa | 0 mm | - | - | - |
| 1777898705 | 8.89° C | 79% | 1003.3 hPa | 0 mm | - | - | - |
| 1777897805 | 8.89° C | 79% | 1003.3 hPa | 0 mm | - | - | - |
| 1777896906 | 8.89° C | 79% | 1003.3 hPa | 0 mm | - | - | - |
| 1777896006 | 7.78° C | 85% | 1003.2 hPa | 0 mm | - | - | - |
| 1777895106 | 7.78° C | 85% | 1003.2 hPa | 0 mm | - | - | - |
| 1777894206 | 7.78° C | 85% | 1003.2 hPa | 0 mm | - | - | - |
| 1777893305 | 7.78° C | 85% | 1003.2 hPa | 0 mm | - | - | - |
| 1777892405 | 8.33° C | 83% | 1003.1 hPa | 0 mm | - | - | - |
| 1777891505 | 8.33° C | 83% | 1003.1 hPa | 0 mm | - | - | - |
| 1777890605 | 8.33° C | 83% | 1003.1 hPa | 0 mm | - | - | - |
| 1777889705 | 8.33° C | 83% | 1003.1 hPa | 0 mm | - | - | - |
| 1777888805 | 8.89° C | 80% | 1003.4 hPa | 0 mm | - | - | - |
* Rain latest hour (hover to see other rain measurements)
** Current wind speed in m/s (hover to see current wind gust speed)